Terminal Aerodrome Forecast
Issued by NWS St Louis, MO

Home | Current Version | Previous Version | Graphics & Text | Print | Product List | Glossary On
Versions: 1 2 3 4 5 6 7 8 9 10 11 12 13 14 15 16 17 18 19 20 21 22 23 24 25 26 27 28 29 30 31 32 33 34 35
000
FTUS43 KLSX 301724
TAFSTL
TAF
KSTL 301724Z 3018/0124 16014G22KT 6SM -SHRA OVC025
     FM302000 16016G25KT P6SM VCTS OVC020CB
     FM010000 18015G24KT P6SM VCSH BKN070
     FM010200 21013G19KT P6SM BKN150
     FM010400 21012KT P6SM SCT110
     FM011500 23012G23KT P6SM BKN025=

USA.gov is the U.S. government's official web portal to all federal, state and local government web resources and services.